createdAt,value
2018-09-01T00:00:24.335Z,25.99
2018-09-01T00:01:24.341Z,26.07
2018-09-01T00:02:24.341Z,26.01
2018-09-01T00:03:24.347Z,26.07
2018-09-01T00:04:24.351Z,26.06
2018-09-01T00:05:24.355Z,26.13
2018-09-01T00:06:24.361Z,26.06
2018-09-01T00:07:24.397Z,26.02
2018-09-01T00:08:24.370Z,26.09
2018-09-01T00:09:24.374Z,26.13
2018-09-01T00:10:24.380Z,26.13
2018-09-01T00:11:24.385Z,26.06
2018-09-01T00:12:24.389Z,26.05
2018-09-01T00:13:24.393Z,26.06
2018-09-01T00:14:24.400Z,26.09
2018-09-01T00:15:24.403Z,26.06
2018-09-01T00:16:24.408Z,25.98
2018-09-01T00:17:24.418Z,26.07
2018-09-01T00:18:24.422Z,26.06
2018-09-01T00:19:24.432Z,26.05
2018-09-01T00:20:24.428Z,26.05
2018-09-01T00:21:24.432Z,26.05
2018-09-01T00:22:24.438Z,26.12
2018-09-01T00:23:24.442Z,26.13
2018-09-01T00:24:24.449Z,26.12
2018-09-01T00:25:24.451Z,26.07
2018-09-01T00:26:24.457Z,26.13
2018-09-01T00:27:24.462Z,26.12
2018-09-01T00:28:24.466Z,26.06
2018-09-01T00:29:24.473Z,26.07
2018-09-01T00:30:24.475Z,26.10
2018-09-01T00:31:24.481Z,26.09
2018-09-01T00:32:24.485Z,26.10
2018-09-01T00:33:24.489Z,26.13
2018-09-01T00:34:24.496Z,26.07
2018-09-01T00:35:24.500Z,26.13
2018-09-01T00:36:24.505Z,26.10
2018-09-01T00:37:24.550Z,26.12
2018-09-01T00:38:24.514Z,26.09
2018-09-01T00:39:24.519Z,26.06
2018-09-01T00:40:24.524Z,26.09
2018-09-01T00:41:24.535Z,26.06
2018-09-01T00:42:24.533Z,26.01
2018-09-01T00:43:24.537Z,26.06
2018-09-01T00:44:24.543Z,26.06
2018-09-01T00:45:24.547Z,26.02
2018-09-01T00:46:24.551Z,26.13
2018-09-01T00:47:24.558Z,26.09
2018-09-01T00:48:24.562Z,26.15
2018-09-01T00:49:24.566Z,26.05
2018-09-01T00:50:24.571Z,26.09
2018-09-01T00:51:24.593Z,26.07
2018-09-01T00:52:24.581Z,26.09
2018-09-01T00:53:24.588Z,26.12
2018-09-01T00:54:24.591Z,26.13
2018-09-01T00:55:24.595Z,26.12
2018-09-01T00:56:24.601Z,26.06
2018-09-01T00:57:24.604Z,26.05
2018-09-01T00:58:24.610Z,26.07
2018-09-01T00:59:24.626Z,26.09
2018-09-01T01:00:24.622Z,26.06
2018-09-01T01:01:24.623Z,26.13
2018-09-01T01:02:24.629Z,26.15
2018-09-01T01:03:24.634Z,26.06
2018-09-01T01:04:24.639Z,26.12
2018-09-01T01:05:24.644Z,26.09
2018-09-01T01:06:24.648Z,26.15
2018-09-01T01:07:24.654Z,26.15
2018-09-01T01:08:24.659Z,26.06
2018-09-01T01:09:24.664Z,26.07
2018-09-01T01:10:24.668Z,26.10
2018-09-01T01:11:24.670Z,26.09
2018-09-01T01:12:24.682Z,26.12
2018-09-01T01:13:24.688Z,26.12
2018-09-01T01:14:24.692Z,26.15
2018-09-01T01:15:24.692Z,26.02
2018-09-01T01:16:24.700Z,26.09
2018-09-01T01:17:24.700Z,26.09
2018-09-01T01:18:24.706Z,26.09
2018-09-01T01:19:24.722Z,26.12
2018-09-01T01:20:24.715Z,26.15
2018-09-01T01:21:24.724Z,26.12
2018-09-01T01:22:24.726Z,26.12
2018-09-01T01:23:24.729Z,26.09
2018-09-01T01:24:24.737Z,26.05
2018-09-01T01:25:24.738Z,26.13
2018-09-01T01:26:24.743Z,26.13
2018-09-01T01:27:24.751Z,26.05
2018-09-01T01:28:24.762Z,26.15
2018-09-01T01:29:24.765Z,26.15
2018-09-01T01:30:24.767Z,26.10
2018-09-01T01:31:24.764Z,26.12
2018-09-01T01:32:24.773Z,26.13
2018-09-01T01:33:24.777Z,26.15
2018-09-01T01:34:24.782Z,26.09
2018-09-01T01:35:24.787Z,26.05
2018-09-01T01:36:24.790Z,26.07
2018-09-01T01:37:24.797Z,26.12
2018-09-01T01:38:24.802Z,26.12
2018-09-01T01:39:24.809Z,26.09
2018-09-01T01:40:24.811Z,26.07
2018-09-01T01:41:24.815Z,26.12
2018-09-01T01:42:24.821Z,26.09
2018-09-01T01:43:24.825Z,26.09
2018-09-01T01:44:24.832Z,26.15
2018-09-01T01:45:24.836Z,26.05
2018-09-01T01:46:24.842Z,26.06
2018-09-01T01:47:24.845Z,26.15
2018-09-01T01:48:24.850Z,26.07
2018-09-01T01:49:24.869Z,26.10
2018-09-01T01:50:24.859Z,26.05
2018-09-01T01:51:24.864Z,26.12
2018-09-01T01:52:24.869Z,26.10
2018-09-01T01:53:24.873Z,26.12
2018-09-01T01:54:24.892Z,26.06
2018-09-01T01:55:24.883Z,26.12
2018-09-01T01:56:24.894Z,26.12
2018-09-01T01:57:24.892Z,26.17
2018-09-01T01:58:24.897Z,26.13
2018-09-01T01:59:24.905Z,26.13
2018-09-01T02:00:24.907Z,26.15
2018-09-01T02:01:24.914Z,26.07
2018-09-01T02:02:24.916Z,26.12
2018-09-01T02:03:24.923Z,26.07
2018-09-01T02:04:24.926Z,26.06
2018-09-01T02:05:24.930Z,26.12
2018-09-01T02:06:24.935Z,26.09
2018-09-01T02:07:24.949Z,26.09
2018-09-01T02:08:24.946Z,26.12
2018-09-01T02:09:24.950Z,26.12
2018-09-01T02:10:24.955Z,26.06
2018-09-01T02:11:24.960Z,26.12
2018-09-01T02:12:24.964Z,26.12
2018-09-01T02:13:24.968Z,26.13
2018-09-01T02:14:24.974Z,26.09
2018-09-01T02:15:24.979Z,26.02
2018-09-01T02:16:24.985Z,26.06
2018-09-01T02:17:24.988Z,26.09
2018-09-01T02:18:24.992Z,26.13
2018-09-01T02:19:24.998Z,26.10
2018-09-01T02:20:25.004Z,26.07
2018-09-01T02:21:25.005Z,26.06
2018-09-01T02:22:25.044Z,26.02
2018-09-01T02:23:25.017Z,26.05
2018-09-01T02:24:25.022Z,25.97
2018-09-01T02:25:25.027Z,26.01
2018-09-01T02:26:25.029Z,25.97
2018-09-01T02:27:25.036Z,25.99
2018-09-01T02:28:25.042Z,25.99
2018-09-01T02:29:25.046Z,26.01
2018-09-01T02:30:25.050Z,25.98
2018-09-01T02:31:25.057Z,26.01
2018-09-01T02:32:25.060Z,25.99
2018-09-01T02:33:25.065Z,25.99
2018-09-01T02:34:25.071Z,25.97
2018-09-01T02:35:25.074Z,25.98
2018-09-01T02:36:25.079Z,25.97
2018-09-01T02:37:25.084Z,25.97
2018-09-01T02:38:25.089Z,25.95
2018-09-01T02:39:25.094Z,25.92
2018-09-01T02:40:25.099Z,25.92
2018-09-01T02:41:25.100Z,25.94
2018-09-01T02:42:25.108Z,25.91
2018-09-01T02:43:25.114Z,25.91
2018-09-01T02:44:25.119Z,26.02
2018-09-01T02:45:25.122Z,25.92
2018-09-01T02:46:25.127Z,25.94
2018-09-01T02:47:25.132Z,25.94
2018-09-01T02:48:25.138Z,25.91
2018-09-01T02:49:25.153Z,25.90
2018-09-01T02:50:25.154Z,25.94
2018-09-01T02:51:25.151Z,25.92
2018-09-01T02:52:25.156Z,25.91
2018-09-01T02:53:25.161Z,25.98
2018-09-01T02:54:25.164Z,25.92
2018-09-01T02:55:25.174Z,25.91
2018-09-01T02:56:25.175Z,25.88
2018-09-01T02:57:25.178Z,25.90
2018-09-01T02:58:25.183Z,25.94
2018-09-01T02:59:25.191Z,25.88
2018-09-01T03:00:25.195Z,25.94
2018-09-01T03:01:25.198Z,25.94
2018-09-01T03:02:25.201Z,25.90
2018-09-01T03:03:25.207Z,25.94
2018-09-01T03:04:25.232Z,25.92
2018-09-01T03:05:25.216Z,25.90
2018-09-01T03:06:25.221Z,25.92
2018-09-01T03:07:25.226Z,25.90
2018-09-01T03:08:25.231Z,25.87
2018-09-01T03:09:25.234Z,25.90
2018-09-01T03:10:25.242Z,25.85
2018-09-01T03:11:25.251Z,25.87
2018-09-01T03:12:25.253Z,25.90
2018-09-01T03:13:25.254Z,25.85
2018-09-01T03:14:25.258Z,25.90
2018-09-01T03:15:25.263Z,25.90
2018-09-01T03:16:25.268Z,25.85
2018-09-01T03:17:25.277Z,25.90
2018-09-01T03:18:25.277Z,25.82
2018-09-01T03:19:25.285Z,25.87
2018-09-01T03:20:25.291Z,25.82
2018-09-01T03:21:25.290Z,25.82
2018-09-01T03:22:25.296Z,25.83
2018-09-01T03:23:25.300Z,25.80
2018-09-01T03:24:25.305Z,25.87
2018-09-01T03:25:25.309Z,25.82
2018-09-01T03:26:25.314Z,25.77
2018-09-01T03:27:25.323Z,25.75
2018-09-01T03:28:25.323Z,25.82
2018-09-01T03:29:25.330Z,25.77
2018-09-01T03:30:25.333Z,25.85
2018-09-01T03:31:25.335Z,25.80
2018-09-01T03:32:25.342Z,25.76
2018-09-01T03:33:25.348Z,25.79
2018-09-01T03:34:25.351Z,25.82
2018-09-01T03:35:25.366Z,25.82
2018-09-01T03:36:25.372Z,25.77
2018-09-01T03:37:25.367Z,25.80
2018-09-01T03:38:25.377Z,25.76
2018-09-01T03:39:25.374Z,25.75
2018-09-01T03:40:25.379Z,25.77
2018-09-01T03:41:25.382Z,25.82
2018-09-01T03:42:25.388Z,25.79
2018-09-01T03:43:25.393Z,25.80
2018-09-01T03:44:25.403Z,25.76
2018-09-01T03:45:25.405Z,25.79
2018-09-01T03:46:25.417Z,25.75
2018-09-01T03:47:25.411Z,25.75
2018-09-01T03:48:25.418Z,25.79
2018-09-01T03:49:25.457Z,25.79
2018-09-01T03:50:25.425Z,25.75
2018-09-01T03:51:25.430Z,25.77
2018-09-01T03:52:25.434Z,25.79
2018-09-01T03:53:25.451Z,25.77
2018-09-01T03:54:25.452Z,25.79
2018-09-01T03:55:25.453Z,25.79
2018-09-01T03:56:25.455Z,25.79
2018-09-01T03:57:25.459Z,25.80
2018-09-01T03:58:25.461Z,25.79
2018-09-01T03:59:25.467Z,25.79
2018-09-01T04:00:25.471Z,25.83
2018-09-01T04:01:25.474Z,25.75
2018-09-01T04:02:25.480Z,25.75
2018-09-01T04:03:25.485Z,25.76
2018-09-01T04:04:25.490Z,25.75
2018-09-01T04:05:25.494Z,25.76
2018-09-01T04:06:25.498Z,25.72
2018-09-01T04:07:25.514Z,25.70
2018-09-01T04:08:25.507Z,25.73
2018-09-01T04:09:25.513Z,25.75
2018-09-01T04:10:25.527Z,25.76
2018-09-01T04:11:25.535Z,25.79
2018-09-01T04:12:25.532Z,25.73
2018-09-01T04:13:25.536Z,25.73
2018-09-01T04:14:25.540Z,25.79
2018-09-01T04:15:25.546Z,25.75
2018-09-01T04:16:25.545Z,25.75
2018-09-01T04:17:25.550Z,25.72
2018-09-01T04:18:25.553Z,25.69
2018-09-01T04:19:25.561Z,25.70
2018-09-01T04:20:25.565Z,25.67
2018-09-01T04:21:25.567Z,25.70
2018-09-01T04:22:25.575Z,25.70
2018-09-01T04:23:25.577Z,25.79
2018-09-01T04:24:25.583Z,25.75
2018-09-01T04:25:25.586Z,25.70
2018-09-01T04:26:25.590Z,25.75
2018-09-01T04:27:25.595Z,25.76
2018-09-01T04:28:25.600Z,25.76
2018-09-01T04:29:25.605Z,25.65
2018-09-01T04:30:25.611Z,25.67
2018-09-01T04:31:25.620Z,25.73
2018-09-01T04:32:25.616Z,25.72
2018-09-01T04:33:25.622Z,25.70
2018-09-01T04:34:25.630Z,25.70
2018-09-01T04:35:25.632Z,25.79
2018-09-01T04:36:25.636Z,25.67
2018-09-01T04:37:25.642Z,25.69
2018-09-01T04:38:25.645Z,25.72
2018-09-01T04:39:25.651Z,25.69
2018-09-01T04:40:25.658Z,25.69
2018-09-01T04:41:25.657Z,25.76
2018-09-01T04:42:25.663Z,25.67
2018-09-01T04:43:25.668Z,25.65
2018-09-01T04:44:25.676Z,25.67
2018-09-01T04:45:25.678Z,25.67
2018-09-01T04:46:25.682Z,25.72
2018-09-01T04:47:25.686Z,25.69
2018-09-01T04:48:25.692Z,25.69
2018-09-01T04:49:25.695Z,25.69
2018-09-01T04:50:25.699Z,25.67
2018-09-01T04:51:25.705Z,25.69
2018-09-01T04:52:25.721Z,25.73
2018-09-01T04:53:25.713Z,25.69
2018-09-01T04:54:25.717Z,25.73
2018-09-01T04:55:25.721Z,25.69
2018-09-01T04:56:25.724Z,25.76
2018-09-01T04:57:25.731Z,25.70
2018-09-01T04:58:25.736Z,25.76
2018-09-01T04:59:25.743Z,25.73
2018-09-01T05:00:25.745Z,25.70
2018-09-01T05:01:25.792Z,25.73
2018-09-01T05:02:25.755Z,25.62
2018-09-01T05:03:25.758Z,25.75
2018-09-01T05:04:25.768Z,25.61
2018-09-01T05:05:25.767Z,25.60
2018-09-01T05:06:25.769Z,25.62
2018-09-01T05:07:25.777Z,25.58
2018-09-01T05:08:25.782Z,25.62
2018-09-01T05:09:25.794Z,25.61
2018-09-01T05:10:25.790Z,25.65
2018-09-01T05:11:25.793Z,25.61
2018-09-01T05:12:25.799Z,25.69
2018-09-01T05:13:25.804Z,25.57
2018-09-01T05:14:25.809Z,25.70
2018-09-01T05:15:25.812Z,25.65
2018-09-01T05:16:25.817Z,25.60
2018-09-01T05:17:25.824Z,25.61
2018-09-01T05:18:25.826Z,25.60
2018-09-01T05:19:25.830Z,25.61
2018-09-01T05:20:25.836Z,25.61
2018-09-01T05:21:25.837Z,25.65
2018-09-01T05:22:25.847Z,25.55
2018-09-01T05:23:25.852Z,25.57
2018-09-01T05:24:25.872Z,25.61
2018-09-01T05:25:25.857Z,25.54
2018-09-01T05:26:25.867Z,25.47
2018-09-01T05:27:25.869Z,25.58
2018-09-01T05:28:25.879Z,25.52
2018-09-01T05:29:25.880Z,25.51
2018-09-01T05:30:25.881Z,25.51
2018-09-01T05:31:25.895Z,25.55
2018-09-01T05:32:25.890Z,25.51
2018-09-01T05:33:25.893Z,25.60
2018-09-01T05:34:25.898Z,25.57
2018-09-01T05:35:25.903Z,25.57
2018-09-01T05:36:25.963Z,25.60
2018-09-01T05:37:25.912Z,25.62
2018-09-01T05:38:25.916Z,25.57
2018-09-01T05:39:25.922Z,25.62
2018-09-01T05:40:25.926Z,25.65
2018-09-01T05:41:25.934Z,25.64
2018-09-01T05:42:25.934Z,25.61
2018-09-01T05:43:25.939Z,25.57
2018-09-01T05:44:25.945Z,25.54
2018-09-01T05:45:25.948Z,25.60
2018-09-01T05:46:25.953Z,25.55
2018-09-01T05:47:25.962Z,25.52
2018-09-01T05:48:25.962Z,25.52
2018-09-01T05:49:25.967Z,25.54
2018-09-01T05:50:25.969Z,25.54
2018-09-01T05:51:25.975Z,25.58
2018-09-01T05:52:25.979Z,25.58
2018-09-01T05:53:25.983Z,25.55
2018-09-01T05:54:25.990Z,25.52
2018-09-01T05:55:25.994Z,25.54
2018-09-01T05:56:25.998Z,25.50
2018-09-01T05:57:26.002Z,25.57
2018-09-01T05:58:26.007Z,25.54
2018-09-01T05:59:26.012Z,25.54
2018-09-01T06:00:26.035Z,25.54
2018-09-01T06:01:26.021Z,25.54
2018-09-01T06:02:26.027Z,25.58
2018-09-01T06:03:26.029Z,25.55
2018-09-01T06:04:26.035Z,25.52
2018-09-01T06:05:26.038Z,25.61
2018-09-01T06:06:26.085Z,25.60
2018-09-01T06:07:26.050Z,25.60
2018-09-01T06:08:26.052Z,25.54
2018-09-01T06:09:26.058Z,25.57
2018-09-01T06:10:26.062Z,25.54
2018-09-01T06:11:26.066Z,25.57
2018-09-01T06:12:26.070Z,25.57
2018-09-01T06:13:26.074Z,25.51
2018-09-01T06:14:26.085Z,25.58
2018-09-01T06:15:26.082Z,25.58
2018-09-01T06:16:26.088Z,25.61
2018-09-01T06:17:26.164Z,25.50
2018-09-01T06:18:26.101Z,25.55
2018-09-01T06:19:26.101Z,25.60
2018-09-01T06:20:26.106Z,25.58
2018-09-01T06:21:26.113Z,25.57
2018-09-01T06:22:26.116Z,25.52
2018-09-01T06:23:26.122Z,25.58
2018-09-01T06:24:26.125Z,25.57
2018-09-01T06:25:26.128Z,25.51
2018-09-01T06:26:26.133Z,25.50
2018-09-01T06:27:26.138Z,25.54
2018-09-01T06:28:26.143Z,25.57
2018-09-01T06:29:26.149Z,25.52
2018-09-01T06:30:26.151Z,25.51
2018-09-01T06:31:26.155Z,25.51
2018-09-01T06:32:26.162Z,25.58
2018-09-01T06:33:26.164Z,25.58
2018-09-01T06:34:26.169Z,25.58
2018-09-01T06:35:26.175Z,25.54
2018-09-01T06:36:26.177Z,25.54
2018-09-01T06:37:26.251Z,25.54
2018-09-01T06:38:26.187Z,25.54
2018-09-01T06:39:26.194Z,25.52
2018-09-01T06:40:26.197Z,25.54
2018-09-01T06:41:26.199Z,25.54
2018-09-01T06:42:26.205Z,25.46
2018-09-01T06:43:26.210Z,25.52
2018-09-01T06:44:26.214Z,25.50
2018-09-01T06:45:26.219Z,25.57
2018-09-01T06:46:26.225Z,25.46
2018-09-01T06:47:26.229Z,25.52
2018-09-01T06:48:26.235Z,25.61
2018-09-01T06:49:26.236Z,25.57
2018-09-01T06:50:26.241Z,25.58
2018-09-01T06:51:26.298Z,25.61
2018-09-01T06:52:26.250Z,25.57
2018-09-01T06:53:26.254Z,25.58
2018-09-01T06:54:26.259Z,25.51
2018-09-01T06:55:26.264Z,25.55
2018-09-01T06:56:26.268Z,25.52
2018-09-01T06:57:26.272Z,25.51
2018-09-01T06:58:26.278Z,25.55
2018-09-01T06:59:26.281Z,25.55
2018-09-01T07:00:26.286Z,25.54
2018-09-01T07:01:26.290Z,25.54
2018-09-01T07:02:26.295Z,25.55
2018-09-01T07:03:26.299Z,25.52
2018-09-01T07:04:26.305Z,25.51
2018-09-01T07:05:26.317Z,25.54
2018-09-01T07:06:26.311Z,25.52
2018-09-01T07:07:26.323Z,25.54
2018-09-01T07:08:26.322Z,25.54
2018-09-01T07:09:26.326Z,25.58
2018-09-01T07:10:26.331Z,25.60
2018-09-01T07:11:26.335Z,25.57
2018-09-01T07:12:26.343Z,25.55
2018-09-01T07:13:26.344Z,25.57
2018-09-01T07:14:26.348Z,25.64
2018-09-01T07:15:26.353Z,25.65
2018-09-01T07:16:26.361Z,25.58
2018-09-01T07:17:26.372Z,25.60
2018-09-01T07:18:26.371Z,25.60
2018-09-01T07:19:26.372Z,25.60
2018-09-01T07:20:26.376Z,25.54
2018-09-01T07:21:26.377Z,25.62
2018-09-01T07:22:26.385Z,25.61
2018-09-01T07:23:26.390Z,25.67
2018-09-01T07:24:26.400Z,25.64
2018-09-01T07:25:26.398Z,25.62
2018-09-01T07:26:26.402Z,25.61
2018-09-01T07:27:26.409Z,25.60
2018-09-01T07:28:26.415Z,25.64
2018-09-01T07:29:26.417Z,25.61
2018-09-01T07:30:26.605Z,25.67
2018-09-01T07:31:26.787Z,25.73
2018-09-01T07:32:26.431Z,25.69
2018-09-01T07:33:26.440Z,25.72
2018-09-01T07:34:26.440Z,25.73
2018-09-01T07:35:26.444Z,25.73
2018-09-01T07:36:26.447Z,25.70
2018-09-01T07:37:26.452Z,25.76
2018-09-01T07:38:26.458Z,25.72
2018-09-01T07:39:26.461Z,25.79
2018-09-01T07:40:26.470Z,25.77
2018-09-01T07:41:26.475Z,25.76
2018-09-01T07:42:26.475Z,25.76
2018-09-01T07:43:26.480Z,25.76
2018-09-01T07:44:26.486Z,25.75
2018-09-01T07:45:26.489Z,25.76
2018-09-01T07:46:26.492Z,25.72
2018-09-01T07:47:26.497Z,25.79
2018-09-01T07:48:26.503Z,25.75
2018-09-01T07:49:26.507Z,25.76
2018-09-01T07:50:26.511Z,25.79
2018-09-01T07:51:26.516Z,25.79
2018-09-01T07:52:26.520Z,25.79
2018-09-01T07:53:26.528Z,25.80
2018-09-01T07:54:26.567Z,25.76
2018-09-01T07:55:26.534Z,25.80
2018-09-01T07:56:26.561Z,25.87
2018-09-01T07:57:26.542Z,25.76
2018-09-01T07:58:26.547Z,25.77
2018-09-01T07:59:26.553Z,25.82
2018-09-01T08:00:26.557Z,25.82
2018-09-01T08:01:26.561Z,25.77
2018-09-01T08:02:26.566Z,25.83
2018-09-01T08:03:26.571Z,25.77
2018-09-01T08:04:26.578Z,25.90
2018-09-01T08:05:26.580Z,25.76
2018-09-01T08:06:26.584Z,25.83
2018-09-01T08:07:26.600Z,25.80
2018-09-01T08:08:26.594Z,25.88
2018-09-01T08:09:26.598Z,25.83
2018-09-01T08:10:26.602Z,25.88
2018-09-01T08:11:26.609Z,25.87
2018-09-01T08:12:26.613Z,25.90
2018-09-01T08:13:26.617Z,25.90
2018-09-01T08:14:26.643Z,25.91
2018-09-01T08:15:26.626Z,25.91
2018-09-01T08:16:26.632Z,25.92
2018-09-01T08:17:26.634Z,25.91
2018-09-01T08:18:26.639Z,25.91
2018-09-01T08:19:26.644Z,25.90
2018-09-01T08:20:26.649Z,25.88
2018-09-01T08:21:26.668Z,25.87
2018-09-01T08:22:26.658Z,25.90
2018-09-01T08:23:26.663Z,25.95
2018-09-01T08:24:26.668Z,25.91
2018-09-01T08:25:26.673Z,25.90
2018-09-01T08:26:26.676Z,25.91
2018-09-01T08:27:26.682Z,25.92
2018-09-01T08:28:26.689Z,25.92
2018-09-01T08:29:26.692Z,25.91
2018-09-01T08:30:26.695Z,25.91
2018-09-01T08:31:26.700Z,25.92
2018-09-01T08:32:26.704Z,25.92
2018-09-01T08:33:26.715Z,25.90
2018-09-01T08:34:26.713Z,25.98
2018-09-01T08:35:26.718Z,25.97
2018-09-01T08:36:26.723Z,25.95
2018-09-01T08:37:26.728Z,26.01
2018-09-01T08:38:26.731Z,25.99
2018-09-01T08:39:26.736Z,26.01
2018-09-01T08:40:26.742Z,25.98
2018-09-01T08:41:26.745Z,26.01
2018-09-01T08:42:26.750Z,25.99
2018-09-01T08:43:26.755Z,26.02
2018-09-01T08:44:26.760Z,26.01
2018-09-01T08:45:26.820Z,26.02
2018-09-01T08:46:26.768Z,26.06
2018-09-01T08:47:26.774Z,25.98
2018-09-01T08:48:26.781Z,25.98
2018-09-01T08:49:26.784Z,25.95
2018-09-01T08:50:26.790Z,25.95
2018-09-01T08:51:26.791Z,25.98
2018-09-01T08:52:26.805Z,25.95
2018-09-01T08:53:26.801Z,25.98
2018-09-01T08:54:26.806Z,25.99
2018-09-01T08:55:26.812Z,25.97
2018-09-01T08:56:26.866Z,25.98
2018-09-01T08:57:26.820Z,25.94
2018-09-01T08:58:26.825Z,25.98
2018-09-01T08:59:26.860Z,25.97
2018-09-01T09:00:26.835Z,26.02
2018-09-01T09:01:26.839Z,25.97
2018-09-01T09:02:26.843Z,26.09
2018-09-01T09:03:26.849Z,26.07
2018-09-01T09:04:26.854Z,25.98
2018-09-01T09:05:26.905Z,26.10
2018-09-01T09:06:26.861Z,26.07
2018-09-01T09:07:26.871Z,26.12
2018-09-01T09:08:26.873Z,26.13
2018-09-01T09:09:26.879Z,26.06
2018-09-01T09:10:26.882Z,26.05
2018-09-01T09:11:26.898Z,26.15
2018-09-01T09:12:26.892Z,26.13
2018-09-01T09:13:26.896Z,26.09
2018-09-01T09:14:26.900Z,26.06
2018-09-01T09:15:26.905Z,26.07
2018-09-01T09:16:26.910Z,26.06
2018-09-01T09:17:26.914Z,26.12
2018-09-01T09:18:26.938Z,26.09
2018-09-01T09:19:26.933Z,26.12
2018-09-01T09:20:26.932Z,26.10
2018-09-01T09:21:26.936Z,26.06
2018-09-01T09:22:26.943Z,26.12
2018-09-01T09:23:26.942Z,26.07
2018-09-01T09:24:26.946Z,26.13
2018-09-01T09:25:26.952Z,26.10
2018-09-01T09:26:26.956Z,26.10
2018-09-01T09:27:26.964Z,26.09
2018-09-01T09:28:26.968Z,26.12
2018-09-01T09:29:26.971Z,26.10
2018-09-01T09:30:26.976Z,26.17
2018-09-01T09:31:26.979Z,26.12
2018-09-01T09:32:26.985Z,26.15
2018-09-01T09:33:26.997Z,26.12
2018-09-01T09:34:27.026Z,26.07
2018-09-01T09:35:27.002Z,26.13
2018-09-01T09:36:27.005Z,26.12
2018-09-01T09:37:27.008Z,26.17
2018-09-01T09:38:27.014Z,26.10
2018-09-01T09:39:27.020Z,26.10
2018-09-01T09:40:27.029Z,26.17
2018-09-01T09:41:27.026Z,26.21
2018-09-01T09:42:27.033Z,26.10
2018-09-01T09:43:27.038Z,26.18
2018-09-01T09:44:27.043Z,26.23
2018-09-01T09:45:27.052Z,26.13
2018-09-01T09:46:27.051Z,26.09
2018-09-01T09:47:27.057Z,26.13
2018-09-01T09:48:27.063Z,26.12
2018-09-01T09:49:27.071Z,26.26
2018-09-01T09:50:27.080Z,26.21
2018-09-01T09:51:27.079Z,26.12
2018-09-01T09:52:27.082Z,26.12
2018-09-01T09:53:27.084Z,26.18
2018-09-01T09:54:27.090Z,26.21
2018-09-01T09:55:27.094Z,26.21
2018-09-01T09:56:27.101Z,26.18
2018-09-01T09:57:27.104Z,26.21
2018-09-01T09:58:27.117Z,26.18
2018-09-01T09:59:27.114Z,26.15
2018-09-01T10:00:27.119Z,26.18
2018-09-01T10:01:27.121Z,26.25
2018-09-01T10:02:27.147Z,26.25
2018-09-01T10:03:27.133Z,26.21
2018-09-01T10:04:27.138Z,26.20
2018-09-01T10:05:27.199Z,26.21
2018-09-01T10:06:27.150Z,26.18
2018-09-01T10:07:27.156Z,26.21
2018-09-01T10:08:27.158Z,26.23
2018-09-01T10:09:27.162Z,26.21
2018-09-01T10:10:27.166Z,26.23
2018-09-01T10:11:27.176Z,26.21
2018-09-01T10:12:27.177Z,26.28
2018-09-01T10:13:27.183Z,26.26
2018-09-01T10:14:27.191Z,26.23
2018-09-01T10:15:27.190Z,26.21
2018-09-01T10:16:27.201Z,26.26
2018-09-01T10:17:27.201Z,26.21
2018-09-01T10:18:27.204Z,26.28
2018-09-01T10:19:27.209Z,26.18
2018-09-01T10:20:27.259Z,26.20
2018-09-01T10:21:27.219Z,26.21
2018-09-01T10:22:27.224Z,26.20
2018-09-01T10:23:27.229Z,26.25
2018-09-01T10:24:27.234Z,26.25
2018-09-01T10:25:27.236Z,26.25
2018-09-01T10:26:27.243Z,26.21
2018-09-01T10:27:27.246Z,26.18
2018-09-01T10:28:27.253Z,26.21
2018-09-01T10:29:27.259Z,26.26
2018-09-01T10:30:27.263Z,26.21
2018-09-01T10:31:27.265Z,26.21
2018-09-01T10:32:27.272Z,26.21
2018-09-01T10:33:27.281Z,26.25
2018-09-01T10:34:27.283Z,26.18
2018-09-01T10:35:27.286Z,26.21
2018-09-01T10:36:27.292Z,26.20
2018-09-01T10:37:27.299Z,26.21
2018-09-01T10:38:27.394Z,26.20
2018-09-01T10:39:27.305Z,26.21
2018-09-01T10:40:27.310Z,26.23
2018-09-01T10:41:27.311Z,26.28
2018-09-01T10:42:27.319Z,26.21
2018-09-01T10:43:27.331Z,26.25
2018-09-01T10:44:27.328Z,26.23
2018-09-01T10:45:27.332Z,26.13
2018-09-01T10:46:27.335Z,26.20
2018-09-01T10:47:27.343Z,26.28
2018-09-01T10:48:27.348Z,26.25
2018-09-01T10:49:27.359Z,26.20
2018-09-01T10:50:27.360Z,26.18
2018-09-01T10:51:27.360Z,26.21
2018-09-01T10:52:27.369Z,26.25
2018-09-01T10:53:27.371Z,26.23
2018-09-01T10:54:27.376Z,26.21
2018-09-01T10:55:27.381Z,26.25
2018-09-01T10:56:27.388Z,26.21
2018-09-01T10:57:27.391Z,26.21
2018-09-01T10:58:27.403Z,26.23
2018-09-01T10:59:27.517Z,26.25
2018-09-01T11:00:27.409Z,26.26
2018-09-01T11:01:27.409Z,26.21
2018-09-01T11:02:27.414Z,26.18
2018-09-01T11:03:27.420Z,26.23
2018-09-01T11:04:27.424Z,26.29
2018-09-01T11:05:27.470Z,26.20
2018-09-01T11:06:27.435Z,26.25
2018-09-01T11:07:27.438Z,26.23
2018-09-01T11:08:27.443Z,26.18
2018-09-01T11:09:27.447Z,26.26
2018-09-01T11:10:27.452Z,26.25
2018-09-01T11:11:27.460Z,26.21
2018-09-01T11:12:27.462Z,26.21
2018-09-01T11:13:27.467Z,26.25
2018-09-01T11:14:27.472Z,26.21
2018-09-01T11:15:27.479Z,26.25
2018-09-01T11:16:27.480Z,26.28
2018-09-01T11:17:27.486Z,26.23
2018-09-01T11:18:27.491Z,26.32
2018-09-01T11:19:27.495Z,26.21
2018-09-01T11:20:27.501Z,26.25
2018-09-01T11:21:27.505Z,26.23
2018-09-01T11:22:27.513Z,26.23
2018-09-01T11:23:27.517Z,26.25
2018-09-01T11:24:27.519Z,26.23
2018-09-01T11:25:27.527Z,26.25
2018-09-01T11:26:27.541Z,26.25
2018-09-01T11:27:27.602Z,26.26
2018-09-01T11:28:27.539Z,26.28
2018-09-01T11:29:27.549Z,26.26
2018-09-01T11:30:27.551Z,26.25
2018-09-01T11:31:27.551Z,26.25
2018-09-01T11:32:27.560Z,26.30
2018-09-01T11:33:27.562Z,26.23
2018-09-01T11:34:27.569Z,26.28
2018-09-01T11:35:27.572Z,26.25
2018-09-01T11:36:27.577Z,26.23
2018-09-01T11:37:27.586Z,26.21
2018-09-01T11:38:27.587Z,26.23
2018-09-01T11:39:27.592Z,26.25
2018-09-01T11:40:27.598Z,26.21
2018-09-01T11:41:27.603Z,26.21
2018-09-01T11:42:27.682Z,26.23
2018-09-01T11:43:27.613Z,26.25
2018-09-01T11:44:27.615Z,26.30
2018-09-01T11:45:27.622Z,26.28
2018-09-01T11:46:27.638Z,26.21
2018-09-01T11:47:27.630Z,26.26
2018-09-01T11:48:27.634Z,26.28
2018-09-01T11:49:27.639Z,26.25
2018-09-01T11:50:27.645Z,26.36
2018-09-01T11:51:27.649Z,26.20
2018-09-01T11:52:27.654Z,26.25
2018-09-01T11:53:27.702Z,26.23
2018-09-01T11:54:27.663Z,26.25
2018-09-01T11:55:27.721Z,26.32
2018-09-01T11:56:27.673Z,26.29
2018-09-01T11:57:27.678Z,26.25
2018-09-01T11:58:27.685Z,26.26
2018-09-01T11:59:27.709Z,26.17
2018-09-01T12:00:27.691Z,26.17
2018-09-01T12:01:27.697Z,26.23
2018-09-01T12:02:27.701Z,26.25
2018-09-01T12:03:27.736Z,26.37
2018-09-01T12:04:27.729Z,26.25
2018-09-01T12:05:27.716Z,26.23
2018-09-01T12:06:27.720Z,26.25
2018-09-01T12:07:27.726Z,26.30
2018-09-01T12:08:27.731Z,26.30
2018-09-01T12:09:27.818Z,26.33
2018-09-01T12:10:27.738Z,26.33
2018-09-01T12:11:27.746Z,26.20
2018-09-01T12:12:27.750Z,26.25
2018-09-01T12:13:27.755Z,26.20
2018-09-01T12:14:27.759Z,26.18
2018-09-01T12:15:27.765Z,26.29
2018-09-01T12:16:27.766Z,26.18
2018-09-01T12:17:27.773Z,26.25
2018-09-01T12:18:27.781Z,26.20
2018-09-01T12:19:27.786Z,26.25
2018-09-01T12:20:27.790Z,26.20
2018-09-01T12:21:27.790Z,26.28
2018-09-01T12:22:27.798Z,26.28
2018-09-01T12:23:27.806Z,26.25
2018-09-01T12:24:27.808Z,26.26
2018-09-01T12:25:27.811Z,26.25
2018-09-01T12:26:27.817Z,26.23
2018-09-01T12:27:27.822Z,26.25
2018-09-01T12:28:27.827Z,26.28
2018-09-01T12:29:27.830Z,26.17
2018-09-01T12:30:27.836Z,26.36
2018-09-01T12:31:27.840Z,26.33
2018-09-01T12:32:27.846Z,26.21
2018-09-01T12:33:27.850Z,26.21
2018-09-01T12:34:27.855Z,26.28
2018-09-01T12:35:27.990Z,26.25
2018-09-01T12:36:27.865Z,26.25
2018-09-01T12:37:27.871Z,26.32
2018-09-01T12:38:27.876Z,26.23
2018-09-01T12:39:27.879Z,26.26
2018-09-01T12:40:27.883Z,26.25
2018-09-01T12:41:27.888Z,26.30
2018-09-01T12:42:27.894Z,26.25
2018-09-01T12:43:27.898Z,26.26
2018-09-01T12:44:27.903Z,26.23
2018-09-01T12:45:27.907Z,26.26
2018-09-01T12:46:27.913Z,26.21
2018-09-01T12:47:27.918Z,26.25
2018-09-01T12:48:27.922Z,26.25
2018-09-01T12:49:27.926Z,26.25
2018-09-01T12:50:27.932Z,26.20
2018-09-01T12:51:27.936Z,26.25
2018-09-01T12:52:27.941Z,26.32